createdAt,value
2017-12-19T00:01:05.333Z,23.50
2017-12-19T00:03:33.546Z,25.35
2017-12-19T00:06:00.989Z,24.02
2017-12-19T00:08:28.426Z,23.90
2017-12-19T00:10:55.886Z,24.87
2017-12-19T00:13:23.398Z,25.15
2017-12-19T00:15:50.846Z,24.55
2017-12-19T00:18:18.287Z,24.73
2017-12-19T00:20:45.979Z,24.95
2017-12-19T00:23:13.430Z,24.50
2017-12-19T00:25:40.870Z,26.17
2017-12-19T00:28:08.310Z,25.90
2017-12-19T00:30:35.790Z,25.65
2017-12-19T00:33:03.357Z,26.87
2017-12-19T00:35:30.803Z,25.95
2017-12-19T00:37:58.253Z,27.37
2017-12-19T00:40:25.722Z,25.17
2017-12-19T00:42:53.178Z,26.08
2017-12-19T00:45:20.635Z,25.62
2017-12-19T00:47:48.090Z,25.67
2017-12-19T00:50:15.650Z,28.05
2017-12-19T00:52:43.090Z,24.87
2017-12-19T00:55:10.549Z,26.62
2017-12-19T00:57:37.996Z,26.17
2017-12-19T01:00:05.433Z,27.55
2017-12-19T01:02:32.869Z,27.50
2017-12-19T01:05:01.062Z,28.05
2017-12-19T01:07:28.553Z,27.13
2017-12-19T01:09:56.002Z,28.15
2017-12-19T01:12:23.454Z,26.37
2017-12-19T01:14:50.897Z,28.90
2017-12-19T01:17:18.320Z,28.27
2017-12-19T01:19:46.542Z,28.12
2017-12-19T01:22:13.973Z,29.50
2017-12-19T01:24:41.418Z,27.45
2017-12-19T01:27:08.858Z,28.27
2017-12-19T01:29:37.186Z,27.90
2017-12-19T01:32:04.689Z,28.40
2017-12-19T01:34:32.890Z,28.92
2017-12-19T01:37:00.369Z,27.45
2017-12-19T01:39:27.810Z,29.40
2017-12-19T01:41:55.237Z,29.35
2017-12-19T01:44:23.439Z,28.30
2017-12-19T01:46:50.874Z,28.00
2017-12-19T01:49:18.375Z,28.48
2017-12-19T01:51:45.826Z,28.73
2017-12-19T01:54:13.267Z,29.70
2017-12-19T01:56:40.703Z,30.48
2017-12-19T01:59:08.151Z,31.30
2017-12-19T02:01:36.374Z,30.98
2017-12-19T02:04:03.894Z,30.25
2017-12-19T02:06:31.321Z,28.87
2017-12-19T02:08:59.526Z,30.90
2017-12-19T02:11:27.016Z,29.55
2017-12-19T02:13:54.451Z,28.92
2017-12-19T02:16:21.955Z,29.42
2017-12-19T02:18:49.649Z,30.83
2017-12-19T02:21:17.054Z,30.17
2017-12-19T02:23:44.486Z,30.03
2017-12-19T02:26:11.925Z,30.03
2017-12-19T02:28:39.418Z,29.53
2017-12-19T02:31:06.871Z,29.33
2017-12-19T02:33:34.330Z,31.03
2017-12-19T02:36:01.788Z,29.87
2017-12-19T02:38:29.243Z,29.45
2017-12-19T02:40:56.679Z,30.30
2017-12-19T02:43:24.146Z,31.35
2017-12-19T02:45:51.605Z,32.60
2017-12-19T02:48:19.072Z,31.70
2017-12-19T02:50:46.531Z,32.30
2017-12-19T02:53:13.962Z,33.00
2017-12-19T02:55:41.420Z,32.75
2017-12-19T02:58:08.850Z,30.42
2017-12-19T03:00:36.282Z,32.65
2017-12-19T03:03:04.538Z,33.03
2017-12-19T03:05:31.975Z,31.45
2017-12-19T03:07:59.430Z,31.45
2017-12-19T03:10:26.899Z,32.63
2017-12-19T03:12:55.277Z,31.55
2017-12-19T03:15:22.703Z,31.08
2017-12-19T03:17:50.190Z,31.98
2017-12-19T03:20:17.640Z,32.22
2017-12-19T03:22:45.102Z,33.90
2017-12-19T03:25:12.550Z,32.70
2017-12-19T03:27:39.986Z,30.70
2017-12-19T03:30:07.463Z,31.03
2017-12-19T03:32:34.938Z,31.00
2017-12-19T03:35:02.380Z,30.73
2017-12-19T03:37:29.815Z,31.17
2017-12-19T03:39:57.293Z,30.30
2017-12-19T03:42:24.728Z,29.55
2017-12-19T03:44:52.155Z,30.10
2017-12-19T03:47:20.376Z,28.17
2017-12-19T03:49:47.803Z,29.90
2017-12-19T03:52:15.287Z,28.52
2017-12-19T03:54:42.720Z,29.15
2017-12-19T03:57:10.147Z,29.42
2017-12-19T03:59:38.354Z,28.80
2017-12-19T04:02:05.795Z,29.35
2017-12-19T04:04:33.276Z,30.90
2017-12-19T04:07:00.690Z,29.50
2017-12-19T04:09:28.889Z,28.27
2017-12-19T04:11:56.366Z,30.10
2017-12-19T04:14:23.800Z,31.30
2017-12-19T04:16:51.225Z,30.65
2017-12-19T04:19:19.439Z,30.67
2017-12-19T04:21:46.917Z,31.52
2017-12-19T04:24:14.366Z,30.77
2017-12-19T04:26:41.803Z,32.92
2017-12-19T04:29:09.283Z,33.15
2017-12-19T04:31:36.714Z,32.17
2017-12-19T04:34:04.158Z,32.38
2017-12-19T04:36:31.646Z,32.97
2017-12-19T04:38:59.099Z,32.17
2017-12-19T04:41:26.530Z,32.43
2017-12-19T04:43:53.969Z,35.67
2017-12-19T04:46:22.161Z,34.50
2017-12-19T04:48:49.643Z,36.35
2017-12-19T04:51:17.093Z,36.33
2017-12-19T04:53:44.654Z,36.38
2017-12-19T04:56:12.086Z,37.35
2017-12-19T04:58:39.570Z,37.90
2017-12-19T05:01:07.010Z,37.05
2017-12-19T05:03:34.492Z,37.25
2017-12-19T05:06:01.928Z,37.35
2017-12-19T05:08:29.369Z,35.90
2017-12-19T05:10:56.818Z,35.83
2017-12-19T05:13:24.314Z,35.30
2017-12-19T05:15:51.758Z,36.13
2017-12-19T05:18:19.199Z,35.42
2017-12-19T05:20:46.673Z,34.72
2017-12-19T05:23:14.105Z,33.35
2017-12-19T05:25:41.602Z,34.73
2017-12-19T05:28:09.129Z,33.80
2017-12-19T05:30:36.542Z,33.92
2017-12-19T05:33:04.756Z,33.67
2017-12-19T05:35:32.204Z,33.50
2017-12-19T05:37:59.639Z,35.03
2017-12-19T05:40:27.971Z,32.47
2017-12-19T05:42:55.417Z,33.58
2017-12-19T05:45:22.863Z,33.65
2017-12-19T05:47:50.344Z,29.50
2017-12-19T05:50:17.791Z,31.70
2017-12-19T05:52:45.230Z,30.75
2017-12-19T05:55:12.664Z,31.42
2017-12-19T05:57:40.162Z,31.98
2017-12-19T06:00:07.618Z,30.30
2017-12-19T06:02:35.058Z,28.57
2017-12-19T06:05:02.498Z,28.95
2017-12-19T06:07:29.931Z,29.05
2017-12-19T06:09:58.129Z,28.35
2017-12-19T06:12:25.578Z,28.25
2017-12-19T06:14:53.082Z,28.30
2017-12-19T06:17:20.553Z,27.27
2017-12-19T06:19:47.986Z,29.12
2017-12-19T06:22:15.451Z,26.05
2017-12-19T06:24:42.979Z,28.50
2017-12-19T06:27:10.455Z,28.10
2017-12-19T06:29:37.994Z,28.40
2017-12-19T06:32:05.471Z,28.43
2017-12-19T06:34:32.928Z,26.97
2017-12-19T06:37:00.467Z,30.02
2017-12-19T06:39:27.930Z,30.20
2017-12-19T06:41:55.357Z,28.38
2017-12-19T06:44:22.794Z,28.77
2017-12-19T06:46:50.987Z,29.10
2017-12-19T06:49:18.429Z,29.23
2017-12-19T06:51:46.676Z,29.25
2017-12-19T06:54:14.228Z,29.40
2017-12-19T06:56:41.670Z,29.17
2017-12-19T06:59:09.210Z,30.30
2017-12-19T07:01:36.768Z,28.30
2017-12-19T07:04:04.190Z,29.00
2017-12-19T07:06:32.422Z,28.70
2017-12-19T07:08:59.854Z,27.77
2017-12-19T07:11:27.287Z,29.50
2017-12-19T07:13:54.786Z,28.12
2017-12-19T07:16:22.220Z,27.08
2017-12-19T07:18:49.675Z,28.25
2017-12-19T07:21:17.115Z,29.55
2017-12-19T07:23:44.578Z,27.27
2017-12-19T07:26:12.007Z,26.27
2017-12-19T07:28:39.529Z,26.80
2017-12-19T07:31:06.962Z,26.20
2017-12-19T07:33:34.416Z,27.07
2017-12-19T07:36:01.838Z,24.42
2017-12-19T07:38:30.162Z,26.45
2017-12-19T07:40:57.717Z,25.25
2017-12-19T07:43:25.135Z,26.90
2017-12-19T07:45:52.609Z,27.45
2017-12-19T07:48:20.181Z,23.55
2017-12-19T07:50:47.835Z,25.92
2017-12-19T07:53:15.418Z,25.02
2017-12-19T07:55:42.868Z,25.88
2017-12-19T07:58:10.306Z,25.30
2017-12-19T08:00:37.890Z,24.17
2017-12-19T08:03:05.354Z,22.98
2017-12-19T08:05:32.785Z,22.70
2017-12-19T08:08:00.274Z,23.55
2017-12-19T08:10:27.730Z,22.45
2017-12-19T08:12:55.185Z,23.20
2017-12-19T08:15:22.632Z,23.17
2017-12-19T08:17:50.070Z,24.12
2017-12-19T08:20:17.554Z,23.37
2017-12-19T08:22:45.077Z,21.03
2017-12-19T08:25:12.546Z,23.73
2017-12-19T08:27:39.993Z,22.30
2017-12-19T08:30:07.462Z,22.52
2017-12-19T08:32:34.915Z,21.37
2017-12-19T08:35:02.566Z,22.73
2017-12-19T08:37:30.054Z,21.65
2017-12-19T08:39:57.494Z,21.83
2017-12-19T08:42:24.978Z,20.33
2017-12-19T08:44:52.418Z,20.50
2017-12-19T08:47:19.869Z,21.83
2017-12-19T08:49:47.315Z,22.85
2017-12-19T08:52:14.893Z,20.25
2017-12-19T08:54:42.342Z,22.23
2017-12-19T08:57:09.873Z,22.05
2017-12-19T08:59:37.333Z,22.10
2017-12-19T09:02:04.769Z,22.98
2017-12-19T09:04:32.201Z,22.15
2017-12-19T09:07:00.400Z,22.67
2017-12-19T09:09:27.854Z,21.98
2017-12-19T09:11:55.366Z,22.13
2017-12-19T09:14:22.816Z,22.48
2017-12-19T09:16:50.233Z,20.58
2017-12-19T09:19:17.669Z,20.60
2017-12-19T09:21:45.114Z,21.05
2017-12-19T09:24:13.356Z,20.20
2017-12-19T09:26:40.772Z,19.80
2017-12-19T09:29:08.224Z,19.27
2017-12-19T09:31:35.719Z,19.50
2017-12-19T09:34:03.171Z,18.80
2017-12-19T09:36:30.742Z,20.35
2017-12-19T09:38:58.184Z,20.62
2017-12-19T09:41:25.646Z,20.52
2017-12-19T09:43:53.087Z,20.65
2017-12-19T09:46:20.517Z,20.45
2017-12-19T09:48:47.966Z,19.20
2017-12-19T09:51:16.315Z,19.52
2017-12-19T09:53:44.705Z,18.83
2017-12-19T09:56:12.982Z,17.60
2017-12-19T09:58:40.416Z,19.55
2017-12-19T10:01:07.958Z,18.60
2017-12-19T10:03:35.390Z,18.15
2017-12-19T10:06:02.869Z,17.52
2017-12-19T10:08:30.406Z,19.58
2017-12-19T10:10:57.834Z,18.95
2017-12-19T10:13:25.446Z,18.10
2017-12-19T10:15:52.900Z,18.60
2017-12-19T10:18:20.449Z,19.15
2017-12-19T10:20:47.923Z,17.67
2017-12-19T10:23:15.452Z,19.20
2017-12-19T10:25:42.882Z,18.80
2017-12-19T10:28:10.382Z,18.37
2017-12-19T10:30:37.850Z,18.25
2017-12-19T10:33:05.282Z,17.92
2017-12-19T10:35:32.830Z,17.15
2017-12-19T10:38:00.339Z,18.50
2017-12-19T10:40:27.874Z,16.50
2017-12-19T10:42:55.546Z,18.80
2017-12-19T10:45:23.022Z,17.45
2017-12-19T10:47:50.451Z,18.27
2017-12-19T10:50:17.890Z,18.62
2017-12-19T10:52:45.354Z,18.25
2017-12-19T10:55:12.817Z,17.15
2017-12-19T10:57:40.270Z,17.65
2017-12-19T11:00:07.702Z,17.45
2017-12-19T11:02:35.149Z,17.20
2017-12-19T11:05:02.740Z,17.70
2017-12-19T11:07:30.194Z,17.73
2017-12-19T11:09:57.740Z,17.65
2017-12-19T11:12:25.178Z,18.48
2017-12-19T11:14:52.774Z,17.77
2017-12-19T11:17:20.330Z,17.50
2017-12-19T11:19:47.761Z,17.25
2017-12-19T11:22:15.338Z,18.90
2017-12-19T11:24:42.780Z,17.37
2017-12-19T11:27:10.358Z,17.58
2017-12-19T11:29:37.814Z,18.73
2017-12-19T11:32:05.261Z,19.12
2017-12-19T11:34:32.718Z,16.52
2017-12-19T11:37:00.207Z,17.02
2017-12-19T11:39:27.658Z,18.00
2017-12-19T11:41:55.091Z,17.83
2017-12-19T11:44:22.579Z,16.75
2017-12-19T11:46:50.019Z,17.75
2017-12-19T11:49:17.466Z,17.70
2017-12-19T11:51:44.894Z,17.48
2017-12-19T11:54:12.398Z,17.40
2017-12-19T11:56:39.831Z,16.30
2017-12-19T11:59:07.319Z,16.60
2017-12-19T12:01:34.954Z,18.08
2017-12-19T12:04:02.434Z,16.80
2017-12-19T12:06:29.890Z,17.62
2017-12-19T12:08:57.351Z,15.95
2017-12-19T12:11:24.783Z,16.80
2017-12-19T12:13:52.263Z,16.12
2017-12-19T12:16:19.702Z,15.75
2017-12-19T12:18:47.250Z,14.65
2017-12-19T12:21:14.727Z,15.00
2017-12-19T12:23:42.198Z,14.77
2017-12-19T12:26:09.644Z,14.20
2017-12-19T12:28:37.122Z,15.32
2017-12-19T12:31:04.570Z,14.55
2017-12-19T12:33:32.015Z,13.27
2017-12-19T12:35:59.586Z,13.23
2017-12-19T12:38:27.131Z,13.37
2017-12-19T12:40:54.617Z,12.63
2017-12-19T12:43:22.050Z,11.35
2017-12-19T12:45:49.595Z,8.40
2017-12-19T12:48:17.038Z,9.20
2017-12-19T12:50:44.483Z,8.55
2017-12-19T12:53:12.071Z,7.57
2017-12-19T12:55:39.523Z,5.80
2017-12-19T12:58:06.991Z,6.37
2017-12-19T13:00:34.446Z,7.90
2017-12-19T13:03:01.907Z,6.13
2017-12-19T13:05:29.346Z,6.15
2017-12-19T13:07:56.818Z,6.03
2017-12-19T13:10:24.257Z,6.00
2017-12-19T13:12:51.710Z,6.05
2017-12-19T13:15:19.257Z,5.72
2017-12-19T13:17:46.735Z,5.90
2017-12-19T13:20:14.194Z,7.05
2017-12-19T13:22:41.650Z,8.17
2017-12-19T13:25:09.215Z,9.57
2017-12-19T13:27:36.660Z,9.98
2017-12-19T13:30:04.198Z,11.95
2017-12-19T13:32:31.615Z,13.10
2017-12-19T13:34:59.827Z,17.40
2017-12-19T13:37:27.262Z,18.92
2017-12-19T13:39:54.768Z,21.33
2017-12-19T13:42:22.214Z,22.80
2017-12-19T13:44:49.670Z,23.30
2017-12-19T13:47:17.121Z,23.08
2017-12-19T13:49:44.556Z,23.02
2017-12-19T13:52:12.059Z,24.20
2017-12-19T13:54:39.517Z,24.08
2017-12-19T13:57:06.942Z,22.37
2017-12-19T13:59:34.397Z,23.33
2017-12-19T14:02:01.874Z,22.23
2017-12-19T14:04:29.315Z,23.25
2017-12-19T14:06:56.749Z,22.62
2017-12-19T14:09:24.185Z,23.10
2017-12-19T14:11:52.396Z,22.62
2017-12-19T14:14:19.834Z,22.83
2017-12-19T14:16:47.404Z,23.30
2017-12-19T14:19:14.837Z,20.33
2017-12-19T14:21:42.350Z,21.48
2017-12-19T14:24:09.787Z,21.70
2017-12-19T14:26:37.253Z,23.20
2017-12-19T14:29:04.752Z,22.80
2017-12-19T14:31:32.938Z,19.87
2017-12-19T14:34:00.413Z,20.45
2017-12-19T14:36:27.857Z,21.30
2017-12-19T14:38:55.335Z,21.35
2017-12-19T14:41:22.778Z,20.20
2017-12-19T14:43:50.230Z,20.20
2017-12-19T14:46:17.827Z,21.98
2017-12-19T14:48:45.300Z,20.10
2017-12-19T14:51:12.734Z,20.87
2017-12-19T14:53:40.300Z,20.02
2017-12-19T14:56:07.744Z,20.40
2017-12-19T14:58:35.223Z,20.60
2017-12-19T15:01:02.846Z,19.25
2017-12-19T15:03:30.312Z,19.05
2017-12-19T15:05:57.764Z,18.95
2017-12-19T15:08:25.289Z,18.40
2017-12-19T15:10:53.518Z,18.12
2017-12-19T15:13:20.970Z,18.37
2017-12-19T15:15:48.504Z,18.35
2017-12-19T15:18:15.991Z,18.65
2017-12-19T15:20:43.440Z,18.40
2017-12-19T15:23:10.862Z,18.40
2017-12-19T15:25:38.349Z,18.12
2017-12-19T15:28:05.803Z,18.30
2017-12-19T15:30:33.296Z,19.30
2017-12-19T15:33:00.730Z,19.10
2017-12-19T15:35:28.997Z,18.43
2017-12-19T15:37:56.531Z,18.77
2017-12-19T15:40:24.113Z,17.87
2017-12-19T15:42:51.554Z,18.50
2017-12-19T15:45:18.982Z,18.35
2017-12-19T15:47:46.502Z,18.60
2017-12-19T15:50:14.050Z,18.00
2017-12-19T15:52:41.611Z,17.25
2017-12-19T15:55:09.063Z,18.73
2017-12-19T15:57:36.504Z,18.20
2017-12-19T16:00:03.949Z,20.53
2017-12-19T16:02:31.406Z,18.45
2017-12-19T16:04:58.983Z,19.33
2017-12-19T16:07:26.447Z,18.60
2017-12-19T16:09:54.081Z,19.30
2017-12-19T16:12:21.662Z,19.52
2017-12-19T16:14:49.101Z,18.77
2017-12-19T16:17:16.581Z,19.00
2017-12-19T16:19:44.030Z,18.52
2017-12-19T16:22:11.474Z,17.27
2017-12-19T16:24:38.932Z,18.67
2017-12-19T16:27:06.416Z,18.87
2017-12-19T16:29:34.078Z,18.80
2017-12-19T16:32:01.592Z,18.48
2017-12-19T16:34:29.003Z,18.10
2017-12-19T16:36:56.535Z,16.83
2017-12-19T16:39:23.962Z,17.00
2017-12-19T16:41:51.487Z,18.12
2017-12-19T16:44:19.702Z,18.60
2017-12-19T16:46:47.256Z,18.85
2017-12-19T16:49:14.682Z,18.15
2017-12-19T16:51:42.152Z,19.45
2017-12-19T16:54:09.599Z,18.37
2017-12-19T16:56:37.056Z,19.33
2017-12-19T16:59:04.635Z,18.73
2017-12-19T17:01:32.067Z,19.70
2017-12-19T17:04:00.286Z,20.70
2017-12-19T17:06:27.871Z,20.35
2017-12-19T17:08:55.377Z,19.98
2017-12-19T17:11:23.607Z,20.80
2017-12-19T17:13:51.074Z,21.27
2017-12-19T17:16:18.498Z,21.10
2017-12-19T17:18:45.951Z,21.33
2017-12-19T17:21:13.396Z,21.50
2017-12-19T17:23:40.960Z,23.45
2017-12-19T17:26:08.438Z,22.40
2017-12-19T17:28:35.897Z,23.23
2017-12-19T17:31:03.364Z,23.90
2017-12-19T17:33:30.817Z,23.02
2017-12-19T17:35:58.263Z,23.30
2017-12-19T17:38:25.718Z,23.60
2017-12-19T17:40:53.155Z,22.63
2017-12-19T17:43:20.639Z,22.15
2017-12-19T17:45:48.062Z,21.80
2017-12-19T17:48:15.623Z,21.70
2017-12-19T17:50:43.039Z,20.75
2017-12-19T17:53:11.260Z,21.40
2017-12-19T17:55:38.692Z,19.42
2017-12-19T17:58:06.283Z,19.77
2017-12-19T18:00:33.748Z,22.77
2017-12-19T18:03:01.180Z,22.62
2017-12-19T18:05:28.654Z,21.70
2017-12-19T18:07:56.101Z,23.62
2017-12-19T18:10:23.564Z,24.00
2017-12-19T18:12:51.031Z,22.75
2017-12-19T18:15:18.512Z,23.15
2017-12-19T18:17:46.054Z,23.67
2017-12-19T18:20:13.612Z,24.80
2017-12-19T18:22:41.055Z,23.15
2017-12-19T18:25:08.504Z,25.70
2017-12-19T18:27:35.930Z,24.92
2017-12-19T18:30:03.382Z,28.02
2017-12-19T18:32:30.823Z,27.87
2017-12-19T18:34:58.270Z,29.12
2017-12-19T18:37:26.625Z,28.60
2017-12-19T18:39:54.150Z,29.58
2017-12-19T18:42:21.628Z,30.10
2017-12-19T18:44:49.098Z,31.60
2017-12-19T18:47:16.538Z,32.00
2017-12-19T18:49:43.966Z,34.42
2017-12-19T18:52:11.446Z,33.45
2017-12-19T18:54:38.890Z,33.67
2017-12-19T18:57:06.355Z,34.38
2017-12-19T18:59:33.831Z,34.03
2017-12-19T19:02:01.270Z,36.75
2017-12-19T19:04:28.703Z,36.67
2017-12-19T19:06:56.138Z,36.08
2017-12-19T19:09:24.347Z,37.03
2017-12-19T19:11:51.791Z,36.53
2017-12-19T19:14:19.227Z,35.92
2017-12-19T19:16:48.133Z,37.22
2017-12-19T19:19:15.570Z,37.28
2017-12-19T19:21:43.947Z,37.53
2017-12-19T19:24:12.155Z,37.72
2017-12-19T19:26:39.595Z,37.10
2017-12-19T19:29:07.047Z,37.28
2017-12-19T19:31:34.551Z,38.60
2017-12-19T19:34:01.981Z,37.67
2017-12-19T19:36:29.426Z,38.85
2017-12-19T19:38:56.981Z,37.55
2017-12-19T19:41:24.484Z,35.88
2017-12-19T19:43:51.940Z,36.70
2017-12-19T19:46:20.910Z,37.05
2017-12-19T19:48:48.354Z,36.42
2017-12-19T19:51:15.826Z,36.55
2017-12-19T19:53:43.394Z,38.08
2017-12-19T19:56:10.834Z,40.22
2017-12-19T19:58:38.275Z,38.10
2017-12-19T20:01:06.146Z,39.08
2017-12-19T20:03:33.567Z,36.78
2017-12-19T20:06:01.770Z,36.63
2017-12-19T20:08:29.258Z,40.13
2017-12-19T20:10:56.676Z,39.08
2017-12-19T20:13:24.145Z,37.28
2017-12-19T20:15:51.558Z,38.97
2017-12-19T20:18:19.798Z,39.13
2017-12-19T20:20:47.252Z,36.95
2017-12-19T20:23:14.714Z,37.10
2017-12-19T20:25:42.162Z,35.53
2017-12-19T20:28:09.630Z,37.00
2017-12-19T20:30:37.066Z,36.22
2017-12-19T20:33:05.224Z,35.97
2017-12-19T20:35:32.715Z,34.83
2017-12-19T20:38:00.159Z,35.25
2017-12-19T20:40:28.306Z,33.85
2017-12-19T20:42:55.734Z,31.23
2017-12-19T20:45:24.058Z,31.08
2017-12-19T20:47:51.590Z,32.45
2017-12-19T20:50:19.571Z,33.33
2017-12-19T20:52:46.987Z,31.45
2017-12-19T20:55:14.503Z,31.42
2017-12-19T20:57:41.939Z,30.60
2017-12-19T21:00:09.806Z,31.05
2017-12-19T21:02:37.278Z,33.53
2017-12-19T21:05:04.702Z,33.28
2017-12-19T21:07:32.158Z,31.40
2017-12-19T21:09:59.814Z,31.08
2017-12-19T21:12:27.394Z,29.87
2017-12-19T21:14:54.822Z,30.00
2017-12-19T21:17:23.126Z,30.10
2017-12-19T21:19:50.602Z,29.80
2017-12-19T21:22:18.082Z,29.90
2017-12-19T21:24:45.516Z,30.42
2017-12-19T21:27:12.971Z,29.55
2017-12-19T21:29:40.535Z,28.75
2017-12-19T21:32:07.970Z,30.02
2017-12-19T21:34:35.542Z,29.92
2017-12-19T21:37:03.110Z,31.17
2017-12-19T21:39:30.534Z,32.83
2017-12-19T21:41:58.123Z,30.90
2017-12-19T21:44:25.659Z,29.65
2017-12-19T21:46:53.247Z,30.95
2017-12-19T21:49:20.766Z,29.15
2017-12-19T21:51:48.219Z,28.50
2017-12-19T21:54:15.705Z,28.43
2017-12-19T21:56:43.144Z,29.48
2017-12-19T21:59:10.582Z,29.77
2017-12-19T22:01:38.074Z,29.95
2017-12-19T22:04:05.514Z,30.08
2017-12-19T22:06:32.982Z,30.50
2017-12-19T22:09:00.438Z,27.48
2017-12-19T22:11:27.908Z,28.00
2017-12-19T22:13:55.350Z,28.40
2017-12-19T22:16:22.785Z,28.80
2017-12-19T22:18:50.354Z,28.65
2017-12-19T22:21:17.766Z,28.00
2017-12-19T22:23:45.992Z,27.00
2017-12-19T22:26:13.430Z,27.10
2017-12-19T22:28:40.863Z,25.75
2017-12-19T22:31:09.084Z,27.60
2017-12-19T22:33:36.530Z,26.58
2017-12-19T22:36:03.978Z,26.33
2017-12-19T22:38:31.423Z,24.95
2017-12-19T22:40:58.853Z,24.37
2017-12-19T22:43:27.086Z,23.90
2017-12-19T22:45:54.648Z,24.52
2017-12-19T22:48:22.093Z,23.92
2017-12-19T22:50:49.610Z,22.70
2017-12-19T22:53:17.018Z,23.48
2017-12-19T22:55:44.462Z,22.90
2017-12-19T22:58:11.918Z,23.58
2017-12-19T23:00:39.379Z,23.77
2017-12-19T23:03:06.830Z,24.80
2017-12-19T23:05:34.290Z,22.83
2017-12-19T23:08:01.746Z,22.87
2017-12-19T23:10:29.203Z,22.10
2017-12-19T23:12:56.649Z,22.77
2017-12-19T23:15:24.090Z,22.73
2017-12-19T23:17:51.610Z,22.52
2017-12-19T23:20:19.852Z,22.73
2017-12-19T23:22:47.310Z,21.30
2017-12-19T23:25:14.870Z,21.77
2017-12-19T23:27:42.299Z,21.42
2017-12-19T23:30:09.776Z,21.20
2017-12-19T23:32:37.242Z,22.27
2017-12-19T23:35:04.700Z,21.90
2017-12-19T23:37:32.144Z,19.90
2017-12-19T23:39:59.579Z,21.10
2017-12-19T23:42:27.810Z,21.65
2017-12-19T23:44:56.027Z,21.48
2017-12-19T23:47:23.470Z,21.12
2017-12-19T23:49:50.930Z,22.70
2017-12-19T23:52:18.358Z,21.70
2017-12-19T23:54:46.582Z,20.48
2017-12-19T23:57:14.046Z,20.40
2017-12-19T23:59:41.485Z,21.92
